sensor_id;sensor_type;location;lat;lon;timestamp;P1;durP1;ratioP1;P2;durP2;ratioP2
78891;SDS011;68368;51.728;5.248;2023-07-02T00:00:06;13.90;;;6.40;;
78891;SDS011;68368;51.728;5.248;2023-07-02T00:02:10;15.10;;;6.90;;
78891;SDS011;68368;51.728;5.248;2023-07-02T00:04:14;13.90;;;6.80;;
78891;SDS011;68368;51.728;5.248;2023-07-02T00:06:18;15.30;;;6.70;;
78891;SDS011;68368;51.728;5.248;2023-07-02T00:08:21;16.00;;;6.90;;
78891;SDS011;68368;51.728;5.248;2023-07-02T00:10:26;15.50;;;7.00;;
78891;SDS011;68368;51.728;5.248;2023-07-02T00:12:29;18.20;;;7.80;;
78891;SDS011;68368;51.728;5.248;2023-07-02T00:14:32;16.70;;;8.40;;
78891;SDS011;68368;51.728;5.248;2023-07-02T00:16:39;15.00;;;7.00;;
78891;SDS011;68368;51.728;5.248;2023-07-02T00:18:44;22.50;;;7.40;;
78891;SDS011;68368;51.728;5.248;2023-07-02T00:20:47;16.20;;;7.60;;
78891;SDS011;68368;51.728;5.248;2023-07-02T00:22:52;16.50;;;7.70;;
78891;SDS011;68368;51.728;5.248;2023-07-02T00:24:55;20.10;;;8.10;;
78891;SDS011;68368;51.728;5.248;2023-07-02T00:26:58;20.10;;;8.20;;
78891;SDS011;68368;51.728;5.248;2023-07-02T00:29:02;15.40;;;6.70;;
78891;SDS011;68368;51.728;5.248;2023-07-02T00:31:06;17.00;;;7.40;;
78891;SDS011;68368;51.728;5.248;2023-07-02T00:33:10;17.50;;;7.70;;
78891;SDS011;68368;51.728;5.248;2023-07-02T00:35:15;18.10;;;8.40;;
78891;SDS011;68368;51.728;5.248;2023-07-02T00:37:18;16.20;;;8.40;;
78891;SDS011;68368;51.728;5.248;2023-07-02T00:39:24;20.60;;;8.60;;
78891;SDS011;68368;51.728;5.248;2023-07-02T00:41:27;19.30;;;8.80;;
78891;SDS011;68368;51.728;5.248;2023-07-02T00:43:30;21.00;;;8.80;;
78891;SDS011;68368;51.728;5.248;2023-07-02T00:45:34;23.00;;;8.40;;
78891;SDS011;68368;51.728;5.248;2023-07-02T00:47:37;16.30;;;7.50;;
78891;SDS011;68368;51.728;5.248;2023-07-02T00:49:41;25.40;;;9.50;;
78891;SDS011;68368;51.728;5.248;2023-07-02T00:51:45;18.10;;;7.70;;
78891;SDS011;68368;51.728;5.248;2023-07-02T00:53:50;25.20;;;10.10;;
78891;SDS011;68368;51.728;5.248;2023-07-02T00:55:55;17.60;;;8.80;;
78891;SDS011;68368;51.728;5.248;2023-07-02T00:57:58;20.60;;;10.10;;
78891;SDS011;68368;51.728;5.248;2023-07-02T01:00:02;24.30;;;9.80;;
78891;SDS011;68368;51.728;5.248;2023-07-02T01:02:06;20.80;;;8.50;;
78891;SDS011;68368;51.728;5.248;2023-07-02T01:04:10;23.30;;;10.40;;
78891;SDS011;68368;51.728;5.248;2023-07-02T01:06:14;20.50;;;9.90;;
78891;SDS011;68368;51.728;5.248;2023-07-02T01:08:17;18.00;;;8.20;;
78891;SDS011;68368;51.728;5.248;2023-07-02T01:10:21;20.90;;;8.70;;
78891;SDS011;68368;51.728;5.248;2023-07-02T01:12:25;21.90;;;9.50;;
78891;SDS011;68368;51.728;5.248;2023-07-02T01:14:30;23.20;;;9.60;;
78891;SDS011;68368;51.728;5.248;2023-07-02T01:16:38;19.60;;;9.70;;
78891;SDS011;68368;51.728;5.248;2023-07-02T01:18:44;24.70;;;9.40;;
78891;SDS011;68368;51.728;5.248;2023-07-02T01:20:47;23.60;;;9.50;;
78891;SDS011;68368;51.728;5.248;2023-07-02T01:22:52;23.60;;;10.20;;
78891;SDS011;68368;51.728;5.248;2023-07-02T01:24:57;19.30;;;9.30;;
78891;SDS011;68368;51.728;5.248;2023-07-02T01:27:00;17.60;;;8.60;;
78891;SDS011;68368;51.728;5.248;2023-07-02T01:29:14;16.40;;;8.50;;
78891;SDS011;68368;51.728;5.248;2023-07-02T01:31:18;25.40;;;9.90;;
78891;SDS011;68368;51.728;5.248;2023-07-02T01:33:21;21.90;;;9.60;;
78891;SDS011;68368;51.728;5.248;2023-07-02T01:35:24;24.60;;;9.80;;
78891;SDS011;68368;51.728;5.248;2023-07-02T01:37:28;19.70;;;9.40;;
78891;SDS011;68368;51.728;5.248;2023-07-02T01:39:31;22.40;;;9.60;;
78891;SDS011;68368;51.728;5.248;2023-07-02T01:41:36;28.00;;;10.50;;
78891;SDS011;68368;51.728;5.248;2023-07-02T01:43:53;23.00;;;9.60;;
78891;SDS011;68368;51.728;5.248;2023-07-02T01:45:56;23.90;;;10.30;;
78891;SDS011;68368;51.728;5.248;2023-07-02T01:48:00;17.50;;;9.20;;
78891;SDS011;68368;51.728;5.248;2023-07-02T01:50:03;24.60;;;10.30;;
78891;SDS011;68368;51.728;5.248;2023-07-02T01:52:08;23.70;;;10.20;;
78891;SDS011;68368;51.728;5.248;2023-07-02T01:54:11;23.90;;;10.40;;
78891;SDS011;68368;51.728;5.248;2023-07-02T01:56:15;23.30;;;9.50;;
78891;SDS011;68368;51.728;5.248;2023-07-02T01:58:18;22.90;;;9.40;;
78891;SDS011;68368;51.728;5.248;2023-07-02T02:00:25;18.00;;;9.40;;
78891;SDS011;68368;51.728;5.248;2023-07-02T02:02:28;21.80;;;9.70;;
78891;SDS011;68368;51.728;5.248;2023-07-02T02:04:31;17.50;;;8.50;;
78891;SDS011;68368;51.728;5.248;2023-07-02T02:06:35;17.30;;;8.10;;
78891;SDS011;68368;51.728;5.248;2023-07-02T02:08:39;16.80;;;7.80;;
78891;SDS011;68368;51.728;5.248;2023-07-02T02:10:43;17.00;;;7.10;;
78891;SDS011;68368;51.728;5.248;2023-07-02T02:12:46;16.40;;;7.20;;
78891;SDS011;68368;51.728;5.248;2023-07-02T02:14:49;13.50;;;6.40;;
78891;SDS011;68368;51.728;5.248;2023-07-02T02:16:53;15.00;;;5.90;;
78891;SDS011;68368;51.728;5.248;2023-07-02T02:18:56;13.90;;;5.70;;
78891;SDS011;68368;51.728;5.248;2023-07-02T02:21:00;12.00;;;5.70;;
78891;SDS011;68368;51.728;5.248;2023-07-02T02:23:06;16.60;;;5.90;;
78891;SDS011;68368;51.728;5.248;2023-07-02T02:25:10;15.80;;;5.80;;
78891;SDS011;68368;51.728;5.248;2023-07-02T02:27:13;15.80;;;6.20;;
78891;SDS011;68368;51.728;5.248;2023-07-02T02:29:16;14.60;;;5.60;;
78891;SDS011;68368;51.728;5.248;2023-07-02T02:31:19;11.70;;;4.90;;
78891;SDS011;68368;51.728;5.248;2023-07-02T02:33:22;12.10;;;5.40;;
78891;SDS011;68368;51.728;5.248;2023-07-02T02:35:26;12.50;;;5.70;;
78891;SDS011;68368;51.728;5.248;2023-07-02T02:37:31;13.10;;;5.60;;
78891;SDS011;68368;51.728;5.248;2023-07-02T02:39:37;17.30;;;6.20;;
78891;SDS011;68368;51.728;5.248;2023-07-02T02:41:40;14.10;;;6.60;;
78891;SDS011;68368;51.728;5.248;2023-07-02T02:43:44;14.60;;;5.20;;
78891;SDS011;68368;51.728;5.248;2023-07-02T02:45:47;14.80;;;5.80;;
78891;SDS011;68368;51.728;5.248;2023-07-02T02:47:50;21.30;;;6.60;;
78891;SDS011;68368;51.728;5.248;2023-07-02T02:49:53;14.20;;;5.30;;
78891;SDS011;68368;51.728;5.248;2023-07-02T02:51:57;14.40;;;5.20;;
78891;SDS011;68368;51.728;5.248;2023-07-02T02:54:00;12.40;;;5.30;;
78891;SDS011;68368;51.728;5.248;2023-07-02T02:56:05;14.40;;;5.60;;
78891;SDS011;68368;51.728;5.248;2023-07-02T02:58:09;17.10;;;5.90;;
78891;SDS011;68368;51.728;5.248;2023-07-02T03:00:13;15.40;;;6.20;;
78891;SDS011;68368;51.728;5.248;2023-07-02T03:02:17;15.80;;;6.00;;
78891;SDS011;68368;51.728;5.248;2023-07-02T03:04:20;17.80;;;6.10;;
78891;SDS011;68368;51.728;5.248;2023-07-02T03:06:23;14.20;;;6.20;;
78891;SDS011;68368;51.728;5.248;2023-07-02T03:08:26;12.60;;;5.80;;
78891;SDS011;68368;51.728;5.248;2023-07-02T03:10:30;18.40;;;6.10;;
78891;SDS011;68368;51.728;5.248;2023-07-02T03:12:33;15.80;;;5.70;;
78891;SDS011;68368;51.728;5.248;2023-07-02T03:14:37;15.40;;;6.10;;
78891;SDS011;68368;51.728;5.248;2023-07-02T03:16:41;17.30;;;5.40;;
78891;SDS011;68368;51.728;5.248;2023-07-02T03:18:46;14.80;;;5.80;;
78891;SDS011;68368;51.728;5.248;2023-07-02T03:20:49;15.80;;;6.10;;
78891;SDS011;68368;51.728;5.248;2023-07-02T03:22:52;12.60;;;5.50;;
78891;SDS011;68368;51.728;5.248;2023-07-02T03:24:55;12.20;;;5.50;;
78891;SDS011;68368;51.728;5.248;2023-07-02T03:26:58;15.70;;;5.60;;
78891;SDS011;68368;51.728;5.248;2023-07-02T03:29:02;12.50;;;5.70;;
78891;SDS011;68368;51.728;5.248;2023-07-02T03:31:05;16.50;;;6.30;;
78891;SDS011;68368;51.728;5.248;2023-07-02T03:33:09;15.40;;;6.40;;
78891;SDS011;68368;51.728;5.248;2023-07-02T03:35:12;16.30;;;6.10;;
78891;SDS011;68368;51.728;5.248;2023-07-02T03:37:15;14.40;;;6.40;;
78891;SDS011;68368;51.728;5.248;2023-07-02T03:39:21;16.60;;;6.10;;
78891;SDS011;68368;51.728;5.248;2023-07-02T03:41:25;14.30;;;6.30;;
78891;SDS011;68368;51.728;5.248;2023-07-02T03:43:30;14.20;;;5.30;;
78891;SDS011;68368;51.728;5.248;2023-07-02T03:45:34;13.00;;;6.20;;
78891;SDS011;68368;51.728;5.248;2023-07-02T03:47:39;17.60;;;6.10;;
78891;SDS011;68368;51.728;5.248;2023-07-02T03:49:42;14.50;;;6.00;;
78891;SDS011;68368;51.728;5.248;2023-07-02T03:51:45;15.10;;;5.80;;
78891;SDS011;68368;51.728;5.248;2023-07-02T03:53:48;14.60;;;6.50;;
78891;SDS011;68368;51.728;5.248;2023-07-02T03:55:52;14.30;;;5.70;;
78891;SDS011;68368;51.728;5.248;2023-07-02T03:57:55;17.00;;;6.40;;
78891;SDS011;68368;51.728;5.248;2023-07-02T03:59:58;14.60;;;5.70;;
78891;SDS011;68368;51.728;5.248;2023-07-02T04:02:02;12.40;;;5.30;;
78891;SDS011;68368;51.728;5.248;2023-07-02T04:04:06;14.60;;;6.00;;
78891;SDS011;68368;51.728;5.248;2023-07-02T04:06:09;14.90;;;6.40;;
78891;SDS011;68368;51.728;5.248;2023-07-02T04:08:13;17.50;;;6.60;;
78891;SDS011;68368;51.728;5.248;2023-07-02T04:10:16;15.00;;;6.10;;
78891;SDS011;68368;51.728;5.248;2023-07-02T04:12:20;18.30;;;6.50;;
78891;SDS011;68368;51.728;5.248;2023-07-02T04:14:23;13.10;;;6.60;;
78891;SDS011;68368;51.728;5.248;2023-07-02T04:16:27;15.70;;;6.20;;
78891;SDS011;68368;51.728;5.248;2023-07-02T04:18:30;15.30;;;6.10;;
78891;SDS011;68368;51.728;5.248;2023-07-02T04:20:34;16.50;;;6.20;;
78891;SDS011;68368;51.728;5.248;2023-07-02T04:22:37;16.40;;;6.40;;
78891;SDS011;68368;51.728;5.248;2023-07-02T04:24:40;17.70;;;6.50;;
78891;SDS011;68368;51.728;5.248;2023-07-02T04:26:44;14.90;;;6.20;;
78891;SDS011;68368;51.728;5.248;2023-07-02T04:28:47;19.70;;;6.30;;
78891;SDS011;68368;51.728;5.248;2023-07-02T04:30:50;14.00;;;6.00;;
78891;SDS011;68368;51.728;5.248;2023-07-02T04:32:53;16.30;;;6.00;;
78891;SDS011;68368;51.728;5.248;2023-07-02T04:34:57;18.00;;;6.70;;
78891;SDS011;68368;51.728;5.248;2023-07-02T04:37:00;17.30;;;6.30;;
78891;SDS011;68368;51.728;5.248;2023-07-02T04:39:03;15.50;;;6.80;;
78891;SDS011;68368;51.728;5.248;2023-07-02T04:41:06;11.90;;;6.20;;
78891;SDS011;68368;51.728;5.248;2023-07-02T04:43:10;15.20;;;6.20;;
78891;SDS011;68368;51.728;5.248;2023-07-02T04:45:13;13.70;;;6.70;;
78891;SDS011;68368;51.728;5.248;2023-07-02T04:47:17;19.40;;;6.70;;
78891;SDS011;68368;51.728;5.248;2023-07-02T04:49:20;13.60;;;6.30;;
78891;SDS011;68368;51.728;5.248;2023-07-02T04:51:24;15.00;;;6.70;;
78891;SDS011;68368;51.728;5.248;2023-07-02T04:53:27;14.60;;;6.70;;
78891;SDS011;68368;51.728;5.248;2023-07-02T04:55:30;15.30;;;6.40;;
78891;SDS011;68368;51.728;5.248;2023-07-02T04:57:34;12.50;;;6.10;;
78891;SDS011;68368;51.728;5.248;2023-07-02T04:59:37;14.30;;;6.30;;
78891;SDS011;68368;51.728;5.248;2023-07-02T05:01:40;14.10;;;6.30;;
78891;SDS011;68368;51.728;5.248;2023-07-02T05:03:43;16.20;;;6.50;;
78891;SDS011;68368;51.728;5.248;2023-07-02T05:05:48;14.90;;;6.40;;
78891;SDS011;68368;51.728;5.248;2023-07-02T05:07:52;13.70;;;5.90;;
78891;SDS011;68368;51.728;5.248;2023-07-02T05:09:57;12.20;;;6.30;;
78891;SDS011;68368;51.728;5.248;2023-07-02T05:12:00;15.30;;;6.80;;
78891;SDS011;68368;51.728;5.248;2023-07-02T05:14:04;13.30;;;6.40;;
78891;SDS011;68368;51.728;5.248;2023-07-02T05:16:08;13.10;;;6.20;;
78891;SDS011;68368;51.728;5.248;2023-07-02T05:18:12;15.80;;;6.70;;
78891;SDS011;68368;51.728;5.248;2023-07-02T05:20:16;15.20;;;6.60;;
78891;SDS011;68368;51.728;5.248;2023-07-02T05:22:20;15.00;;;6.60;;
78891;SDS011;68368;51.728;5.248;2023-07-02T05:24:23;16.60;;;6.80;;
78891;SDS011;68368;51.728;5.248;2023-07-02T05:26:26;12.10;;;6.50;;
78891;SDS011;68368;51.728;5.248;2023-07-02T05:28:31;13.50;;;6.20;;
78891;SDS011;68368;51.728;5.248;2023-07-02T05:30:34;12.50;;;6.10;;
78891;SDS011;68368;51.728;5.248;2023-07-02T05:32:37;19.80;;;7.10;;
78891;SDS011;68368;51.728;5.248;2023-07-02T05:34:40;17.10;;;7.10;;
78891;SDS011;68368;51.728;5.248;2023-07-02T05:36:43;14.60;;;6.20;;
78891;SDS011;68368;51.728;5.248;2023-07-02T05:38:49;18.60;;;7.30;;
78891;SDS011;68368;51.728;5.248;2023-07-02T05:40:52;15.10;;;6.20;;
78891;SDS011;68368;51.728;5.248;2023-07-02T05:42:55;15.90;;;6.20;;
78891;SDS011;68368;51.728;5.248;2023-07-02T05:44:59;16.00;;;6.60;;
78891;SDS011;68368;51.728;5.248;2023-07-02T05:47:02;15.10;;;5.90;;
78891;SDS011;68368;51.728;5.248;2023-07-02T05:49:06;15.90;;;6.00;;
78891;SDS011;68368;51.728;5.248;2023-07-02T05:51:09;12.60;;;5.50;;
78891;SDS011;68368;51.728;5.248;2023-07-02T05:53:12;16.30;;;6.50;;
78891;SDS011;68368;51.728;5.248;2023-07-02T05:55:15;16.60;;;6.20;;
78891;SDS011;68368;51.728;5.248;2023-07-02T05:57:19;15.90;;;5.70;;
78891;SDS011;68368;51.728;5.248;2023-07-02T05:59:22;16.00;;;5.00;;
78891;SDS011;68368;51.728;5.248;2023-07-02T06:01:31;12.10;;;6.10;;
78891;SDS011;68368;51.728;5.248;2023-07-02T06:03:34;17.00;;;6.50;;
78891;SDS011;68368;51.728;5.248;2023-07-02T06:05:37;18.20;;;6.10;;
78891;SDS011;68368;51.728;5.248;2023-07-02T06:07:43;17.10;;;6.50;;
78891;SDS011;68368;51.728;5.248;2023-07-02T06:09:46;15.10;;;6.70;;
78891;SDS011;68368;51.728;5.248;2023-07-02T06:11:51;15.10;;;6.00;;
78891;SDS011;68368;51.728;5.248;2023-07-02T06:13:54;15.60;;;6.10;;
78891;SDS011;68368;51.728;5.248;2023-07-02T06:15:57;15.00;;;5.20;;
78891;SDS011;68368;51.728;5.248;2023-07-02T06:18:01;12.80;;;5.10;;
78891;SDS011;68368;51.728;5.248;2023-07-02T06:20:06;11.50;;;5.50;;
78891;SDS011;68368;51.728;5.248;2023-07-02T06:22:13;13.90;;;5.30;;
78891;SDS011;68368;51.728;5.248;2023-07-02T06:24:19;12.10;;;4.40;;
78891;SDS011;68368;51.728;5.248;2023-07-02T06:26:25;12.40;;;4.40;;
78891;SDS011;68368;51.728;5.248;2023-07-02T06:28:32;10.80;;;4.50;;
78891;SDS011;68368;51.728;5.248;2023-07-02T06:30:35;11.30;;;4.40;;
78891;SDS011;68368;51.728;5.248;2023-07-02T06:32:38;11.90;;;5.10;;
78891;SDS011;68368;51.728;5.248;2023-07-02T06:34:42;11.00;;;4.50;;
78891;SDS011;68368;51.728;5.248;2023-07-02T06:36:45;13.50;;;4.80;;
78891;SDS011;68368;51.728;5.248;2023-07-02T06:38:49;12.60;;;4.80;;
78891;SDS011;68368;51.728;5.248;2023-07-02T06:40:52;12.90;;;5.70;;
78891;SDS011;68368;51.728;5.248;2023-07-02T06:42:56;12.80;;;4.80;;
78891;SDS011;68368;51.728;5.248;2023-07-02T06:45:00;12.90;;;5.10;;
78891;SDS011;68368;51.728;5.248;2023-07-02T06:47:04;15.30;;;5.60;;
78891;SDS011;68368;51.728;5.248;2023-07-02T06:49:08;14.40;;;4.80;;
78891;SDS011;68368;51.728;5.248;2023-07-02T06:51:12;13.80;;;5.50;;
78891;SDS011;68368;51.728;5.248;2023-07-02T06:53:18;10.70;;;4.60;;
78891;SDS011;68368;51.728;5.248;2023-07-02T06:55:21;11.90;;;5.20;;
78891;SDS011;68368;51.728;5.248;2023-07-02T06:57:25;13.80;;;5.00;;
78891;SDS011;68368;51.728;5.248;2023-07-02T06:59:30;13.00;;;4.90;;
78891;SDS011;68368;51.728;5.248;2023-07-02T07:01:33;12.80;;;4.90;;
78891;SDS011;68368;51.728;5.248;2023-07-02T07:03:38;11.40;;;5.00;;
78891;SDS011;68368;51.728;5.248;2023-07-02T07:05:52;9.70;;;4.80;;
78891;SDS011;68368;51.728;5.248;2023-07-02T07:07:55;12.10;;;5.20;;
78891;SDS011;68368;51.728;5.248;2023-07-02T07:09:58;11.60;;;4.80;;
78891;SDS011;68368;51.728;5.248;2023-07-02T07:12:01;11.50;;;4.60;;
78891;SDS011;68368;51.728;5.248;2023-07-02T07:14:05;16.80;;;5.00;;
78891;SDS011;68368;51.728;5.248;2023-07-02T07:16:08;10.90;;;4.60;;
78891;SDS011;68368;51.728;5.248;2023-07-02T07:18:14;12.80;;;4.30;;
78891;SDS011;68368;51.728;5.248;2023-07-02T07:20:19;11.00;;;4.20;;
78891;SDS011;68368;51.728;5.248;2023-07-02T07:22:22;10.60;;;4.80;;
78891;SDS011;68368;51.728;5.248;2023-07-02T07:24:26;11.90;;;5.10;;
78891;SDS011;68368;51.728;5.248;2023-07-02T07:26:30;8.90;;;4.10;;
78891;SDS011;68368;51.728;5.248;2023-07-02T07:28:33;8.70;;;4.00;;
78891;SDS011;68368;51.728;5.248;2023-07-02T07:30:36;10.00;;;4.50;;
78891;SDS011;68368;51.728;5.248;2023-07-02T07:32:39;7.30;;;3.90;;
78891;SDS011;68368;51.728;5.248;2023-07-02T07:34:43;9.60;;;4.50;;
78891;SDS011;68368;51.728;5.248;2023-07-02T07:36:46;9.20;;;4.00;;
78891;SDS011;68368;51.728;5.248;2023-07-02T07:38:50;11.90;;;5.30;;
78891;SDS011;68368;51.728;5.248;2023-07-02T07:40:53;11.20;;;4.40;;
78891;SDS011;68368;51.728;5.248;2023-07-02T07:42:57;9.50;;;4.20;;
78891;SDS011;68368;51.728;5.248;2023-07-02T07:45:00;12.00;;;4.40;;
78891;SDS011;68368;51.728;5.248;2023-07-02T07:47:04;10.70;;;4.40;;
78891;SDS011;68368;51.728;5.248;2023-07-02T07:49:10;9.50;;;4.50;;
78891;SDS011;68368;51.728;5.248;2023-07-02T07:51:14;9.30;;;4.10;;
78891;SDS011;68368;51.728;5.248;2023-07-02T07:53:17;9.30;;;4.40;;
78891;SDS011;68368;51.728;5.248;2023-07-02T07:55:21;13.20;;;4.40;;
78891;SDS011;68368;51.728;5.248;2023-07-02T07:57:24;11.40;;;4.00;;
78891;SDS011;68368;51.728;5.248;2023-07-02T07:59:27;6.50;;;3.50;;
78891;SDS011;68368;51.728;5.248;2023-07-02T08:01:37;8.40;;;3.80;;
78891;SDS011;68368;51.728;5.248;2023-07-02T08:03:40;9.10;;;4.80;;
78891;SDS011;68368;51.728;5.248;2023-07-02T08:05:44;7.40;;;3.90;;
78891;SDS011;68368;51.728;5.248;2023-07-02T08:07:50;7.90;;;3.80;;
78891;SDS011;68368;51.728;5.248;2023-07-02T08:09:53;8.90;;;4.00;;
78891;SDS011;68368;51.728;5.248;2023-07-02T08:12:05;10.50;;;4.00;;
78891;SDS011;68368;51.728;5.248;2023-07-02T08:14:10;9.70;;;4.00;;
78891;SDS011;68368;51.728;5.248;2023-07-02T08:16:14;9.50;;;4.10;;
78891;SDS011;68368;51.728;5.248;2023-07-02T08:18:17;7.60;;;4.10;;
78891;SDS011;68368;51.728;5.248;2023-07-02T08:20:23;7.90;;;4.10;;
78891;SDS011;68368;51.728;5.248;2023-07-02T08:22:26;12.80;;;5.00;;
78891;SDS011;68368;51.728;5.248;2023-07-02T08:24:30;10.30;;;4.50;;
78891;SDS011;68368;51.728;5.248;2023-07-02T08:26:34;9.80;;;4.10;;
78891;SDS011;68368;51.728;5.248;2023-07-02T08:28:37;9.90;;;4.00;;
78891;SDS011;68368;51.728;5.248;2023-07-02T08:30:41;10.00;;;4.60;;
78891;SDS011;68368;51.728;5.248;2023-07-02T08:32:45;7.00;;;3.80;;
78891;SDS011;68368;51.728;5.248;2023-07-02T08:34:48;7.60;;;4.20;;
78891;SDS011;68368;51.728;5.248;2023-07-02T08:36:52;8.30;;;4.30;;
78891;SDS011;68368;51.728;5.248;2023-07-02T08:38:56;12.10;;;4.30;;
78891;SDS011;68368;51.728;5.248;2023-07-02T08:41:01;9.30;;;4.20;;
78891;SDS011;68368;51.728;5.248;2023-07-02T08:43:04;11.30;;;4.60;;
78891;SDS011;68368;51.728;5.248;2023-07-02T08:45:08;7.80;;;3.70;;
78891;SDS011;68368;51.728;5.248;2023-07-02T08:47:13;9.80;;;4.20;;
78891;SDS011;68368;51.728;5.248;2023-07-02T08:49:18;8.40;;;4.20;;
78891;SDS011;68368;51.728;5.248;2023-07-02T08:51:24;6.90;;;4.00;;
78891;SDS011;68368;51.728;5.248;2023-07-02T08:53:27;6.50;;;3.80;;
78891;SDS011;68368;51.728;5.248;2023-07-02T08:55:30;7.70;;;3.80;;
78891;SDS011;68368;51.728;5.248;2023-07-02T08:57:33;7.10;;;3.70;;
78891;SDS011;68368;51.728;5.248;2023-07-02T08:59:37;7.20;;;3.50;;
78891;SDS011;68368;51.728;5.248;2023-07-02T09:01:47;7.50;;;3.60;;
78891;SDS011;68368;51.728;5.248;2023-07-02T09:03:57;9.30;;;4.80;;
78891;SDS011;68368;51.728;5.248;2023-07-02T09:06:04;8.80;;;3.40;;
78891;SDS011;68368;51.728;5.248;2023-07-02T09:08:08;8.10;;;3.90;;
78891;SDS011;68368;51.728;5.248;2023-07-02T09:10:11;7.60;;;3.90;;
78891;SDS011;68368;51.728;5.248;2023-07-02T09:12:27;9.00;;;4.20;;
78891;SDS011;68368;51.728;5.248;2023-07-02T09:14:31;7.30;;;3.80;;
78891;SDS011;68368;51.728;5.248;2023-07-02T09:16:34;9.10;;;4.20;;
78891;SDS011;68368;51.728;5.248;2023-07-02T09:18:39;9.60;;;4.00;;
78891;SDS011;68368;51.728;5.248;2023-07-02T09:20:42;9.30;;;3.80;;
78891;SDS011;68368;51.728;5.248;2023-07-02T09:22:53;8.70;;;4.10;;
78891;SDS011;68368;51.728;5.248;2023-07-02T09:24:57;7.40;;;4.10;;
78891;SDS011;68368;51.728;5.248;2023-07-02T09:27:01;8.50;;;3.10;;
78891;SDS011;68368;51.728;5.248;2023-07-02T09:29:06;7.20;;;3.90;;
78891;SDS011;68368;51.728;5.248;2023-07-02T09:31:09;8.40;;;4.40;;
78891;SDS011;68368;51.728;5.248;2023-07-02T09:33:15;7.80;;;3.90;;
78891;SDS011;68368;51.728;5.248;2023-07-02T09:35:19;8.50;;;3.80;;
78891;SDS011;68368;51.728;5.248;2023-07-02T09:37:22;6.40;;;4.00;;
78891;SDS011;68368;51.728;5.248;2023-07-02T09:39:27;8.30;;;3.40;;
78891;SDS011;68368;51.728;5.248;2023-07-02T09:41:31;9.30;;;3.60;;
78891;SDS011;68368;51.728;5.248;2023-07-02T09:43:36;9.80;;;4.70;;
78891;SDS011;68368;51.728;5.248;2023-07-02T09:45:39;7.20;;;3.70;;
78891;SDS011;68368;51.728;5.248;2023-07-02T09:47:47;8.60;;;3.80;;
78891;SDS011;68368;51.728;5.248;2023-07-02T09:49:55;10.80;;;4.10;;
78891;SDS011;68368;51.728;5.248;2023-07-02T09:52:04;10.00;;;4.10;;
78891;SDS011;68368;51.728;5.248;2023-07-02T09:54:09;10.50;;;4.60;;
78891;SDS011;68368;51.728;5.248;2023-07-02T09:56:15;8.20;;;4.00;;
78891;SDS011;68368;51.728;5.248;2023-07-02T09:58:23;8.00;;;4.00;;
78891;SDS011;68368;51.728;5.248;2023-07-02T10:00:26;7.80;;;3.80;;
78891;SDS011;68368;51.728;5.248;2023-07-02T10:02:30;8.40;;;3.90;;
78891;SDS011;68368;51.728;5.248;2023-07-02T10:04:41;6.60;;;2.90;;
78891;SDS011;68368;51.728;5.248;2023-07-02T10:06:46;9.00;;;3.70;;
78891;SDS011;68368;51.728;5.248;2023-07-02T10:08:54;10.20;;;4.40;;
78891;SDS011;68368;51.728;5.248;2023-07-02T10:11:07;7.70;;;3.80;;
78891;SDS011;68368;51.728;5.248;2023-07-02T10:13:11;9.30;;;4.60;;
78891;SDS011;68368;51.728;5.248;2023-07-02T10:15:23;6.90;;;3.50;;
78891;SDS011;68368;51.728;5.248;2023-07-02T10:17:28;11.50;;;4.70;;
78891;SDS011;68368;51.728;5.248;2023-07-02T10:19:33;12.50;;;4.50;;
78891;SDS011;68368;51.728;5.248;2023-07-02T10:21:36;8.30;;;3.60;;
78891;SDS011;68368;51.728;5.248;2023-07-02T10:23:40;10.80;;;3.90;;
78891;SDS011;68368;51.728;5.248;2023-07-02T10:25:44;7.70;;;4.20;;
78891;SDS011;68368;51.728;5.248;2023-07-02T10:27:47;6.30;;;3.30;;
78891;SDS011;68368;51.728;5.248;2023-07-02T10:29:51;7.00;;;3.90;;
78891;SDS011;68368;51.728;5.248;2023-07-02T10:31:55;5.90;;;2.90;;
78891;SDS011;68368;51.728;5.248;2023-07-02T10:33:59;8.50;;;3.80;;
78891;SDS011;68368;51.728;5.248;2023-07-02T10:36:05;6.40;;;3.30;;
78891;SDS011;68368;51.728;5.248;2023-07-02T10:38:22;6.50;;;3.60;;
78891;SDS011;68368;51.728;5.248;2023-07-02T10:40:27;9.00;;;3.60;;
78891;SDS011;68368;51.728;5.248;2023-07-02T10:42:31;7.20;;;3.10;;
78891;SDS011;68368;51.728;5.248;2023-07-02T10:44:45;9.10;;;3.30;;
78891;SDS011;68368;51.728;5.248;2023-07-02T10:46:51;8.10;;;3.50;;
78891;SDS011;68368;51.728;5.248;2023-07-02T10:48:55;6.10;;;2.60;;
78891;SDS011;68368;51.728;5.248;2023-07-02T10:50:59;7.80;;;2.70;;
78891;SDS011;68368;51.728;5.248;2023-07-02T10:53:15;6.60;;;3.00;;
78891;SDS011;68368;51.728;5.248;2023-07-02T10:55:22;5.10;;;2.70;;
78891;SDS011;68368;51.728;5.248;2023-07-02T10:57:26;7.20;;;2.90;;
78891;SDS011;68368;51.728;5.248;2023-07-02T10:59:32;7.10;;;2.80;;
78891;SDS011;68368;51.728;5.248;2023-07-02T11:01:37;9.20;;;3.60;;
78891;SDS011;68368;51.728;5.248;2023-07-02T11:03:41;9.00;;;3.70;;
78891;SDS011;68368;51.728;5.248;2023-07-02T11:05:44;6.70;;;2.70;;
78891;SDS011;68368;51.728;5.248;2023-07-02T11:07:48;4.60;;;2.40;;
78891;SDS011;68368;51.728;5.248;2023-07-02T11:09:51;6.00;;;3.30;;
78891;SDS011;68368;51.728;5.248;2023-07-02T11:11:56;7.00;;;3.00;;
78891;SDS011;68368;51.728;5.248;2023-07-02T11:14:02;5.20;;;2.50;;
78891;SDS011;68368;51.728;5.248;2023-07-02T11:16:17;6.20;;;2.90;;
78891;SDS011;68368;51.728;5.248;2023-07-02T11:18:22;6.70;;;3.00;;
78891;SDS011;68368;51.728;5.248;2023-07-02T11:20:26;6.80;;;2.80;;
78891;SDS011;68368;51.728;5.248;2023-07-02T11:22:41;7.30;;;2.80;;
78891;SDS011;68368;51.728;5.248;2023-07-02T11:24:45;5.40;;;2.70;;
78891;SDS011;68368;51.728;5.248;2023-07-02T11:26:49;6.30;;;2.80;;
78891;SDS011;68368;51.728;5.248;2023-07-02T11:28:52;4.80;;;2.50;;
78891;SDS011;68368;51.728;5.248;2023-07-02T11:30:56;6.50;;;2.90;;
78891;SDS011;68368;51.728;5.248;2023-07-02T11:33:05;6.50;;;3.10;;
78891;SDS011;68368;51.728;5.248;2023-07-02T11:35:08;7.20;;;3.10;;
78891;SDS011;68368;51.728;5.248;2023-07-02T11:37:11;6.50;;;2.50;;
78891;SDS011;68368;51.728;5.248;2023-07-02T11:39:16;7.60;;;2.90;;
78891;SDS011;68368;51.728;5.248;2023-07-02T11:41:19;6.50;;;2.70;;
78891;SDS011;68368;51.728;5.248;2023-07-02T11:43:23;5.70;;;2.80;;
78891;SDS011;68368;51.728;5.248;2023-07-02T11:45:26;7.30;;;2.90;;
78891;SDS011;68368;51.728;5.248;2023-07-02T11:47:30;5.90;;;3.00;;
78891;SDS011;68368;51.728;5.248;2023-07-02T11:49:33;7.80;;;3.20;;
78891;SDS011;68368;51.728;5.248;2023-07-02T11:51:38;6.10;;;2.90;;
78891;SDS011;68368;51.728;5.248;2023-07-02T11:53:41;7.50;;;3.20;;
78891;SDS011;68368;51.728;5.248;2023-07-02T11:55:44;6.00;;;3.00;;
78891;SDS011;68368;51.728;5.248;2023-07-02T11:57:48;5.80;;;2.90;;
78891;SDS011;68368;51.728;5.248;2023-07-02T11:59:51;5.90;;;2.80;;
78891;SDS011;68368;51.728;5.248;2023-07-02T12:01:54;4.40;;;2.20;;
78891;SDS011;68368;51.728;5.248;2023-07-02T12:03:57;5.50;;;2.80;;
78891;SDS011;68368;51.728;5.248;2023-07-02T12:06:01;5.60;;;2.80;;
78891;SDS011;68368;51.728;5.248;2023-07-02T12:08:04;4.10;;;2.40;;
78891;SDS011;68368;51.728;5.248;2023-07-02T12:10:08;6.40;;;2.90;;
78891;SDS011;68368;51.728;5.248;2023-07-02T12:12:13;5.30;;;2.20;;
78891;SDS011;68368;51.728;5.248;2023-07-02T12:14:17;5.00;;;2.40;;
78891;SDS011;68368;51.728;5.248;2023-07-02T12:16:20;5.60;;;2.70;;
78891;SDS011;68368;51.728;5.248;2023-07-02T12:18:23;4.90;;;2.20;;
78891;SDS011;68368;51.728;5.248;2023-07-02T12:20:27;5.30;;;2.40;;